Time;durP1;ratioP1;P1;durP2;ratioP2;P2;SDS_P1;SDS_P2;PMS_P1;PMS_P2;Temp;Humidity;BMP_temperature;BMP_pressure;BME280_temperature;BME280_humidity;BME280_pressure;Samples;Min_cycle;Max_cycle;Signal;HPM_P1;HPM_P2
2023/03/29 00:00:58;;;;;;;10.10;9.10;;;;;;;5.98;80.46;101558.16;5138818;27;20031;-56
2023/03/29 00:03:25;;;;;;;10.25;9.25;;;;;;;5.87;80.35;101553.19;5139492;27;20075;-57
2023/03/29 00:05:56;;;;;;;9.05;7.90;;;;;;;5.85;79.76;101544.44;5140216;27;20505;-56
2023/03/29 00:08:24;;;;;;;11.25;8.85;;;;;;;5.86;80.68;101546.19;5139208;27;20054;-57
2023/03/29 00:10:50;;;;;;;9.60;8.65;;;;;;;5.91;80.54;101544.25;5139141;27;20105;-56
2023/03/29 00:13:16;;;;;;;9.20;8.23;;;;;;;5.87;81.15;101532.06;5139096;27;20102;-56
2023/03/29 00:15:42;;;;;;;9.73;8.45;;;;;;;5.98;81.28;101545.81;5120210;27;20125;-56
2023/03/29 00:18:08;;;;;;;9.85;9.05;;;;;;;5.87;82.94;101534.72;5121715;27;20102;-57
2023/03/29 00:20:35;;;;;;;8.90;8.15;;;;;;;5.85;82.18;101534.78;5158578;27;20030;-56
2023/03/29 00:23:00;;;;;;;9.32;8.52;;;;;;;5.90;81.68;101529.31;5138848;27;20035;-57
2023/03/29 00:25:26;;;;;;;9.80;8.88;;;;;;;5.94;83.28;101527.47;5124866;27;20038;-56
2023/03/29 00:27:51;;;;;;;9.10;8.18;;;;;;;5.89;82.70;101525.84;5138938;27;20050;-56
2023/03/29 00:30:17;;;;;;;9.18;8.43;;;;;;;5.88;82.72;101531.16;5120387;27;20426;-57
2023/03/29 00:32:42;;;;;;;10.13;9.15;;;;;;;5.91;83.16;101517.84;5139044;27;20102;-56
2023/03/29 00:35:08;;;;;;;9.93;9.02;;;;;;;5.90;82.63;101527.53;5150332;27;20026;-56
2023/03/29 00:37:33;;;;;;;10.50;9.57;;;;;;;5.83;82.56;101511.97;5139979;27;20388;-56
2023/03/29 00:39:59;;;;;;;8.75;7.95;;;;;;;5.89;83.65;101520.56;5138981;27;20436;-56
2023/03/29 00:42:25;;;;;;;9.07;8.18;;;;;;;5.86;83.06;101528.56;5139082;27;20035;-57
2023/03/29 00:45:03;;;;;;;8.48;7.72;;;;;;;5.91;82.47;101523.13;5134808;27;20689;-56
2023/03/29 00:47:43;;;;;;;9.60;8.73;;;;;;;5.92;85.18;101522.22;5131589;27;20118;-56
2023/03/29 00:50:18;;;;;;;9.90;8.02;;;;;;;5.92;82.94;101519.59;5150485;27;20031;-56
2023/03/29 00:52:47;;;;;;;9.05;8.20;;;;;;;5.94;81.42;101520.41;5135214;27;20031;-57
2023/03/29 00:55:20;;;;;;;9.23;8.35;;;;;;;5.92;82.60;101514.31;5143804;27;20046;-56
2023/03/29 00:57:48;;;;;;;8.88;8.18;;;;;;;6.02;81.62;101512.25;5122320;27;20026;-56
2023/03/29 01:00:19;;;;;;;8.65;7.85;;;;;;;5.96;81.99;101499.25;5137164;27;20019;-56
2023/03/29 01:02:54;;;;;;;8.95;8.05;;;;;;;5.99;82.27;101507.94;5156279;27;20061;-56
2023/03/29 01:05:30;;;;;;;8.77;8.10;;;;;;;6.02;82.71;101501.69;5155694;27;20430;-56
2023/03/29 01:08:07;;;;;;;9.85;8.68;;;;;;;6.03;82.67;101491.09;5144942;27;20557;-56
2023/03/29 01:11:06;;;;;;;9.60;8.57;;;;;;;6.11;82.75;101504.88;5116852;27;20027;-57
2023/03/29 01:13:45;;;;;;;8.98;8.18;;;;;;;6.08;83.00;101491.78;5119961;27;20114;-56
2023/03/29 01:16:12;;;;;;;9.33;8.07;;;;;;;6.07;82.78;101495.34;5093029;28;20084;-57
2023/03/29 01:18:38;;;;;;;9.35;8.55;;;;;;;6.06;83.23;101500.66;5142449;27;20597;-57
2023/03/29 01:21:19;;;;;;;10.90;9.18;;;;;;;6.07;83.14;101487.41;5130822;27;20023;-56
2023/03/29 01:24:05;;;;;;;9.50;8.65;;;;;;;6.13;83.76;101481.06;5134885;27;20031;-56
2023/03/29 01:26:40;;;;;;;10.70;8.82;;;;;;;6.13;84.15;101481.06;5133006;27;20027;-57
2023/03/29 01:29:21;;;;;;;9.98;8.52;;;;;;;6.18;83.97;101475.63;5149437;27;20031;-57
2023/03/29 01:31:53;;;;;;;9.18;8.48;;;;;;;6.12;84.39;101474.94;5141392;27;20027;-56
2023/03/29 01:34:26;;;;;;;9.27;8.38;;;;;;;6.10;84.40;101466.19;5108058;28;20047;-56
2023/03/29 01:36:57;;;;;;;10.35;8.73;;;;;;;6.16;84.32;101464.25;5113944;27;20036;-57
2023/03/29 01:39:23;;;;;;;9.32;8.43;;;;;;;6.24;83.46;101460.44;5114401;27;20409;-56
2023/03/29 01:42:13;;;;;;;9.30;7.90;;;;;;;6.32;84.07;101460.16;5103796;28;20049;-56
2023/03/29 01:44:56;;;;;;;9.60;8.30;;;;;;;6.23;84.38;101448.13;5080547;28;20032;-56
2023/03/29 01:47:46;;;;;;;8.65;7.72;;;;;;;6.22;84.17;101450.84;5072940;28;20032;-56
2023/03/29 01:50:34;;;;;;;11.63;8.70;;;;;;;6.29;84.52;101455.81;5070384;28;20123;-56
2023/03/29 01:53:04;;;;;;;9.02;8.13;;;;;;;6.23;84.31;101441.97;5073176;28;20055;-56
2023/03/29 01:55:37;;;;;;;9.35;8.50;;;;;;;6.25;84.22;101440.16;5088229;28;20035;-57
2023/03/29 01:58:06;;;;;;;8.95;8.05;;;;;;;6.22;84.53;101437.63;5093517;28;20467;-56
2023/03/29 02:00:33;;;;;;;8.80;8.10;;;;;;;6.24;84.65;101441.09;5093032;28;20038;-56
2023/03/29 02:03:03;;;;;;;9.18;8.32;;;;;;;6.27;84.82;101430.41;5072123;28;20024;-56
2023/03/29 02:05:30;;;;;;;9.48;8.52;;;;;;;6.23;85.50;101421.72;5073064;28;20028;-56
2023/03/29 02:07:59;;;;;;;9.85;9.02;;;;;;;6.28;85.65;101427.69;5054930;28;20046;-56
2023/03/29 02:10:25;;;;;;;8.70;7.97;;;;;;;6.31;85.50;101422.31;5081153;28;20031;-56
2023/03/29 02:12:51;;;;;;;8.88;8.10;;;;;;;6.31;85.30;101418.81;5077656;28;20020;-56
2023/03/29 02:15:19;;;;;;;9.38;7.55;;;;;;;6.27;85.49;101411.94;5105040;28;20028;-56
2023/03/29 02:17:46;;;;;;;12.05;8.57;;;;;;;6.25;84.81;101408.47;5072455;28;20056;-56
2023/03/29 02:20:16;;;;;;;8.65;7.75;;;;;;;6.28;84.45;101406.56;5072626;28;20501;-56
2023/03/29 02:23:20;;;;;;;8.98;8.10;;;;;;;6.33;84.01;101406.41;5087455;28;20020;-56
2023/03/29 02:25:46;;;;;;;8.32;7.53;;;;;;;6.26;83.25;101394.34;5105048;28;20487;-55
2023/03/29 02:28:13;;;;;;;10.05;8.13;;;;;;;6.36;83.34;101407.16;5072600;28;20020;-57
2023/03/29 02:30:46;;;;;;;9.18;8.27;;;;;;;6.33;83.61;101399.34;5072039;28;20368;-56
2023/03/29 02:33:24;;;;;;;8.73;7.85;;;;;;;6.36;82.66;101401.03;5078024;28;20051;-56
2023/03/29 02:36:00;;;;;;;8.88;8.00;;;;;;;6.39;82.03;101403.53;5133524;27;20049;-56
2023/03/29 02:38:27;;;;;;;8.10;7.35;;;;;;;6.40;82.99;101386.75;5133484;27;20106;-56
2023/03/29 02:40:57;;;;;;;8.32;7.63;;;;;;;6.46;83.07;101401.53;5115963;27;20031;-56
2023/03/29 02:43:26;;;;;;;;;;;;;;;6.59;82.20;101386.97;5115496;27;20073;-56
2023/03/29 02:45:52;;;;;;;8.25;7.43;;;;;;;6.49;80.68;101383.78;5132856;27;19907;-56
2023/03/29 02:48:21;;;;;;;9.82;8.13;;;;;;;6.54;80.64;101392.41;5133119;27;20068;-57
2023/03/29 02:50:49;;;;;;;8.25;7.45;;;;;;;6.52;80.00;101377.53;5133103;27;20102;-56
2023/03/29 02:53:23;;;;;;;8.70;7.82;;;;;;;6.49;80.09;101380.28;5148055;27;20023;-57
2023/03/29 02:55:48;;;;;;;9.02;8.00;;;;;;;6.49;78.93;101373.22;5112428;28;20023;-56
2023/03/29 02:58:14;;;;;;;8.82;7.68;;;;;;;6.45;79.39;101368.13;5129320;27;20032;-56
2023/03/29 03:00:44;;;;;;;11.27;7.57;;;;;;;6.52;78.27;101375.72;5135007;27;20098;-57
2023/03/29 03:03:11;;;;;;;8.48;7.38;;;;;;;6.53;78.92;101374.84;5153888;27;20018;-56
2023/03/29 03:05:37;;;;;;;8.38;7.63;;;;;;;6.51;78.83;101371.38;5135226;27;20022;-56
2023/03/29 03:08:04;;;;;;;7.88;7.03;;;;;;;6.51;78.25;101375.81;5151340;27;20033;-57
2023/03/29 03:10:29;;;;;;;8.63;7.90;;;;;;;6.52;78.73;101372.22;5108927;27;20477;-56
2023/03/29 03:12:55;;;;;;;8.90;7.90;;;;;;;6.57;79.01;101365.00;5133063;27;20030;-57
2023/03/29 03:15:20;;;;;;;8.50;7.82;;;;;;;6.57;78.82;101378.22;5132494;27;20087;-56
2023/03/29 03:17:48;;;;;;;8.38;7.57;;;;;;;6.56;78.87;101369.44;5129528;27;20023;-56
2023/03/29 03:20:14;;;;;;;8.40;7.70;;;;;;;6.55;78.33;101365.03;5146621;27;20038;-57
2023/03/29 03:22:47;;;;;;;8.38;7.57;;;;;;;6.56;78.72;101368.56;5132948;27;20437;-57
2023/03/29 03:25:18;;;;;;;8.68;7.85;;;;;;;6.55;78.06;101361.53;5132928;27;20066;-56
2023/03/29 03:27:44;;;;;;;8.57;7.22;;;;;;;6.53;77.91;101358.97;5132870;27;20040;-56
2023/03/29 03:30:10;;;;;;;8.52;7.72;;;;;;;6.47;78.34;101347.75;5132823;27;20038;-57
2023/03/29 03:32:37;;;;;;;8.65;7.90;;;;;;;6.50;77.56;101339.72;5114253;28;20019;-57
2023/03/29 03:35:04;;;;;;;8.43;7.70;;;;;;;6.56;77.97;101361.50;5132325;28;20514;-56
2023/03/29 03:37:30;;;;;;;8.02;7.35;;;;;;;6.54;78.12;101357.19;5132633;28;20031;-56
2023/03/29 03:39:56;;;;;;;8.60;7.72;;;;;;;6.55;77.47;101367.69;5132702;28;20042;-56
2023/03/29 03:42:22;;;;;;;8.55;7.78;;;;;;;6.56;77.97;101350.06;5115227;28;20375;-56
2023/03/29 03:44:48;;;;;;;8.98;8.18;;;;;;;6.58;77.96;101354.34;5132386;27;20027;-57
2023/03/29 03:47:14;;;;;;;9.70;7.65;;;;;;;6.57;78.63;101349.16;5132184;28;20027;-56
2023/03/29 03:49:40;;;;;;;8.27;7.57;;;;;;;6.66;78.07;101355.88;5132728;27;20493;-57
2023/03/29 03:52:06;;;;;;;8.25;7.63;;;;;;;6.59;78.40;101364.03;5141933;27;20022;-56
2023/03/29 03:54:32;;;;;;;9.13;7.85;;;;;;;6.63;78.41;101361.25;5153474;27;20743;-56
2023/03/29 03:56:58;;;;;;;8.18;7.47;;;;;;;6.60;77.81;101355.16;5153029;27;20037;-57
2023/03/29 03:59:23;;;;;;;8.00;7.32;;;;;;;6.62;77.99;101357.78;5134471;27;20019;-57
2023/03/29 04:01:49;;;;;;;9.43;7.65;;;;;;;6.56;78.11;101350.06;5150957;27;20050;-56
2023/03/29 04:04:15;;;;;;;7.80;7.05;;;;;;;6.58;77.99;101348.22;5134543;27;20366;-57
2023/03/29 04:06:41;;;;;;;8.20;7.50;;;;;;;6.59;77.79;101339.38;5153236;27;20015;-57
2023/03/29 04:09:08;;;;;;;8.05;7.35;;;;;;;6.61;78.15;101337.53;5153259;27;20038;-56
2023/03/29 04:11:33;;;;;;;8.50;7.57;;;;;;;6.57;78.22;101339.44;5135574;27;20068;-56
2023/03/29 04:13:59;;;;;;;7.82;7.03;;;;;;;6.62;78.47;101339.28;5132208;28;20039;-56
2023/03/29 04:16:25;;;;;;;8.50;7.80;;;;;;;6.66;78.49;101346.16;5132034;28;20492;-56
2023/03/29 04:18:50;;;;;;;9.82;7.78;;;;;;;6.62;78.89;101333.97;5132676;27;20035;-57
2023/03/29 04:21:16;;;;;;;9.10;8.30;;;;;;;6.64;78.08;101334.75;5117607;27;20037;-57
2023/03/29 04:23:45;;;;;;;9.00;8.15;;;;;;;6.59;78.50;101327.03;5137644;27;20370;-56
2023/03/29 04:26:12;;;;;;;8.60;7.80;;;;;;;6.70;78.16;101336.31;5117868;27;20027;-57
2023/03/29 04:28:38;;;;;;;9.93;8.40;;;;;;;6.67;78.60;101323.22;5135966;27;20026;-56
2023/03/29 04:31:08;;;;;;;8.45;7.60;;;;;;;6.73;79.23;101329.09;5140378;27;20079;-56
2023/03/29 04:33:33;;;;;;;9.18;8.27;;;;;;;6.66;78.08;101317.06;5136135;27;20058;-56
2023/03/29 04:35:59;;;;;;;9.57;8.68;;;;;;;6.74;77.79;101332.63;5123139;27;20396;-56
2023/03/29 04:38:25;;;;;;;8.68;7.85;;;;;;;6.68;77.76;101314.38;5137970;27;20018;-56
2023/03/29 04:40:50;;;;;;;8.15;7.32;;;;;;;6.75;77.50;101326.41;5137939;27;20023;-56
2023/03/29 04:43:16;;;;;;;10.00;8.38;;;;;;;6.76;78.06;101336.06;5137676;27;20492;-56
2023/03/29 04:45:42;;;;;;;9.57;8.75;;;;;;;6.75;78.17;101329.91;5137124;27;20018;-56
2023/03/29 04:48:10;;;;;;;10.95;8.15;;;;;;;6.75;77.81;101326.41;5130067;27;20031;-56
2023/03/29 04:50:35;;;;;;;9.57;8.35;;;;;;;6.75;77.74;101332.56;5156399;27;20477;-56
2023/03/29 04:53:01;;;;;;;8.50;7.43;;;;;;;6.73;77.84;101315.03;5156374;27;20026;-57
2023/03/29 04:55:26;;;;;;;9.40;7.43;;;;;;;6.81;77.86;101321.75;5156399;27;20061;-56
2023/03/29 04:57:52;;;;;;;9.30;8.50;;;;;;;6.82;77.66;101315.56;5153834;27;20018;-56
2023/03/29 05:00:25;;;;;;;8.55;7.70;;;;;;;6.83;77.32;101311.13;5134957;27;20485;-57
2023/03/29 05:02:51;;;;;;;8.10;7.40;;;;;;;6.83;77.87;101325.19;5135405;27;20023;-56
2023/03/29 05:05:19;;;;;;;9.60;7.88;;;;;;;6.83;78.20;101317.28;5151216;27;20030;-56
2023/03/29 05:07:45;;;;;;;9.00;8.10;;;;;;;6.86;78.11;101310.16;5136414;27;20541;-56
2023/03/29 05:10:10;;;;;;;10.07;9.10;;;;;;;6.85;77.24;101301.31;5136778;27;20027;-56
2023/03/29 05:12:36;;;;;;;10.55;8.63;;;;;;;6.87;78.09;101315.34;5153424;27;20376;-56
2023/03/29 05:15:06;;;;;;;8.73;7.82;;;;;;;6.90;77.64;101317.03;5134832;27;20027;-56
2023/03/29 05:17:33;;;;;;;9.68;8.25;;;;;;;6.90;78.15;101314.38;5135139;27;20019;-56
2023/03/29 05:19:59;;;;;;;9.43;8.15;;;;;;;6.91;77.27;101314.34;5135016;27;20027;-56
2023/03/29 05:22:24;;;;;;;9.77;8.77;;;;;;;6.93;77.61;101309.81;5135243;27;20470;-56
2023/03/29 05:24:52;;;;;;;9.68;8.70;;;;;;;6.93;77.99;101309.81;5152087;27;20030;-56
2023/03/29 05:27:19;;;;;;;9.90;9.00;;;;;;;6.97;77.82;101305.25;5155520;27;20047;-56
2023/03/29 05:29:45;;;;;;;9.77;8.75;;;;;;;6.98;78.45;101315.78;5154856;27;20079;-56
2023/03/29 05:32:12;;;;;;;10.35;9.27;;;;;;;6.95;77.95;101307.13;5155070;27;20014;-57
2023/03/29 05:34:42;;;;;;;8.50;7.50;;;;;;;6.99;78.46;101309.56;5124181;27;20498;-56
2023/03/29 05:37:07;;;;;;;8.93;7.80;;;;;;;7.05;77.62;101322.53;5116239;27;20110;-57
2023/03/29 05:39:33;;;;;;;9.07;8.18;;;;;;;7.08;77.91;101320.69;5135066;27;20026;-56
2023/03/29 05:41:59;;;;;;;10.02;9.02;;;;;;;7.11;77.58;101323.22;5135365;27;20019;-57
2023/03/29 05:44:25;;;;;;;9.40;8.40;;;;;;;7.15;77.73;101332.75;5134590;27;20111;-56
2023/03/29 05:46:51;;;;;;;10.82;8.65;;;;;;;7.13;78.25;101327.53;5115710;27;20060;-56
2023/03/29 05:49:17;;;;;;;9.88;8.57;;;;;;;7.13;78.18;101324.88;5134364;27;20027;-56
2023/03/29 05:51:44;;;;;;;9.98;9.15;;;;;;;7.20;77.56;101328.13;5135532;27;20019;-56
2023/03/29 05:54:10;;;;;;;11.27;8.75;;;;;;;7.18;77.74;101327.34;5134622;27;20027;-57
2023/03/29 05:56:35;;;;;;;10.48;9.35;;;;;;;7.12;77.95;101322.28;5134273;27;20076;-56
2023/03/29 05:59:01;;;;;;;10.52;8.95;;;;;;;7.19;77.72;101334.34;5115718;27;20019;-56
2023/03/29 06:01:27;;;;;;;11.32;9.10;;;;;;;7.22;78.16;101326.28;5125692;27;20019;-56
2023/03/29 06:03:53;;;;;;;10.20;9.23;;;;;;;7.24;78.26;101330.59;5145453;27;20023;-56
2023/03/29 06:06:20;;;;;;;10.32;9.10;;;;;;;7.27;77.94;101329.59;5154893;27;20023;-57
2023/03/29 06:08:47;;;;;;;11.15;9.25;;;;;;;7.28;78.12;101328.69;5154885;27;20112;-56
2023/03/29 06:11:14;;;;;;;10.50;9.40;;;;;;;7.32;78.35;101330.25;5138946;27;20019;-56
2023/03/29 06:13:40;;;;;;;10.82;9.18;;;;;;;7.31;78.74;101327.69;5139908;27;20011;-57
2023/03/29 06:16:08;;;;;;;11.60;9.20;;;;;;;7.36;78.78;101333.66;5135534;27;20473;-57
2023/03/29 06:18:38;;;;;;;11.02;9.70;;;;;;;7.38;78.72;101326.50;5141436;27;20029;-57
2023/03/29 06:21:05;;;;;;;12.80;9.55;;;;;;;7.44;79.08;101336.81;5133726;27;20030;-57
2023/03/29 06:23:30;;;;;;;11.20;9.15;;;;;;;7.44;78.73;101331.53;5133867;27;20027;-57
2023/03/29 06:25:56;;;;;;;10.52;9.63;;;;;;;7.46;78.91;101332.34;5133493;27;20500;-56
2023/03/29 06:28:23;;;;;;;11.70;9.73;;;;;;;7.49;78.85;101338.34;5141022;27;20022;-57
2023/03/29 06:30:48;;;;;;;11.38;9.57;;;;;;;7.53;78.87;101336.47;5153888;27;20022;-56
2023/03/29 06:33:15;;;;;;;12.35;9.48;;;;;;;7.57;78.94;101337.19;5154305;27;20075;-56
2023/03/29 06:35:44;;;;;;;10.20;9.05;;;;;;;7.57;79.16;101337.19;5135530;27;20595;-56
2023/03/29 06:38:10;;;;;;;10.80;9.27;;;;;;;7.60;78.80;101326.47;5142659;27;20179;-57
2023/03/29 06:40:39;;;;;;;9.90;8.95;;;;;;;7.55;78.99;101316.06;5114533;27;20525;-56
2023/03/29 06:43:05;;;;;;;11.02;9.13;;;;;;;7.64;79.03;101326.25;5128971;27;20023;-56
2023/03/29 06:45:33;;;;;;;12.38;10.20;;;;;;;7.69;78.68;101331.34;5153660;27;20070;-56
2023/03/29 06:47:58;;;;;;;12.00;9.57;;;;;;;7.74;78.58;101316.13;5154055;27;20019;-56
2023/03/29 06:50:26;;;;;;;12.25;9.45;;;;;;;7.72;79.29;101315.34;5154124;27;20022;-56
2023/03/29 06:52:51;;;;;;;10.98;9.77;;;;;;;7.84;78.33;101316.59;5147728;27;20023;-56
2023/03/29 06:55:17;;;;;;;13.13;8.98;;;;;;;7.82;79.43;101318.44;5131047;27;20083;-57
2023/03/29 06:57:43;;;;;;;11.00;8.60;;;;;;;7.92;79.71;101325.06;5135132;27;20027;-57
2023/03/29 07:00:14;;;;;;;10.88;9.20;;;;;;;7.95;79.05;101332.88;5153378;27;20033;-56
2023/03/29 07:02:41;;;;;;;10.27;9.30;;;;;;;8.00;79.43;101333.53;5153966;27;20145;-57
2023/03/29 07:05:12;;;;;;;11.00;9.85;;;;;;;8.03;79.59;101340.44;5151883;27;20106;-57
2023/03/29 07:10:31;;;;;;;11.00;9.77;;;;;;;8.03;79.09;101337.81;5143778;27;20050;-56
2023/03/29 07:13:00;;;;;;;11.48;10.15;;;;;;;8.09;79.67;101345.47;5138995;27;20026;-57
2023/03/29 07:15:26;;;;;;;10.98;9.82;;;;;;;8.07;80.00;101342.06;5134080;27;20443;-57
2023/03/29 07:17:53;;;;;;;11.40;9.90;;;;;;;8.09;79.63;101341.06;5131739;27;20114;-56
2023/03/29 07:20:23;;;;;;;12.27;10.70;;;;;;;8.11;80.16;101336.53;5114286;27;20469;-56
2023/03/29 07:22:52;;;;;;;13.65;10.15;;;;;;;8.17;80.21;101338.91;5132773;27;20051;-56
2023/03/29 07:25:23;;;;;;;12.13;10.60;;;;;;;8.22;80.19;101351.09;5133859;27;20378;-56
2023/03/29 07:27:48;;;;;;;10.15;9.23;;;;;;;8.21;79.99;101347.59;5114553;28;20023;-56
2023/03/29 07:30:17;;;;;;;11.85;10.18;;;;;;;8.26;81.12;101357.97;5128241;27;20030;-57
2023/03/29 07:32:45;;;;;;;11.90;9.27;;;;;;;8.29;80.74;101348.09;5153534;27;20026;-56
2023/03/29 07:35:12;;;;;;;11.27;9.75;;;;;;;8.31;80.71;101353.34;5145181;27;20137;-56
2023/03/29 07:37:41;;;;;;;12.07;10.63;;;;;;;8.33;80.59;101362.09;5132381;28;20024;-56
2023/03/29 07:40:11;;;;;;;10.60;9.63;;;;;;;8.37;80.92;101372.47;5132504;28;20015;-56
2023/03/29 07:42:37;;;;;;;13.27;10.00;;;;;;;8.39;80.89;101369.78;5132803;28;20033;-56
2023/03/29 07:45:07;;;;;;;17.17;9.75;;;;;;;8.38;81.11;101378.63;5114881;27;20023;-56
2023/03/29 07:47:33;;;;;;;9.95;9.05;;;;;;;8.41;81.01;101379.38;5114681;28;20454;-56
2023/03/29 07:49:59;;;;;;;11.10;10.00;;;;;;;8.41;81.70;101367.91;5132587;28;20068;-56
2023/03/29 07:52:28;;;;;;;14.38;9.80;;;;;;;8.40;81.63;101371.50;5130406;27;20026;-56
2023/03/29 07:54:54;;;;;;;11.55;10.05;;;;;;;8.43;82.18;101370.50;5157272;27;20062;-57
2023/03/29 07:57:21;;;;;;;10.98;9.65;;;;;;;8.43;83.48;101375.81;5135756;27;20113;-56
2023/03/29 07:59:46;;;;;;;14.40;10.27;;;;;;;8.41;84.23;101373.19;5132756;27;20027;-56
2023/03/29 08:02:12;;;;;;;12.48;11.10;;;;;;;8.41;84.97;101371.44;5135125;27;20046;-57
2023/03/29 08:04:38;;;;;;;13.18;10.07;;;;;;;8.40;86.27;101372.34;5137491;27;20027;-56
2023/03/29 08:07:04;;;;;;;12.90;11.60;;;;;;;8.43;86.86;101371.34;5118960;27;20050;-56
2023/03/29 08:09:30;;;;;;;13.98;10.68;;;;;;;8.45;87.97;101366.00;5135976;27;20106;-56
2023/03/29 08:11:56;;;;;;;12.50;11.18;;;;;;;8.45;88.54;101363.34;5135515;27;20023;-56
2023/03/29 08:14:22;;;;;;;12.73;11.02;;;;;;;8.50;88.78;101366.63;5135836;27;20046;-56
2023/03/29 08:16:51;;;;;;;12.65;10.85;;;;;;;8.48;88.75;101369.38;5151286;27;20035;-56
2023/03/29 08:19:16;;;;;;;13.98;10.85;;;;;;;8.53;89.00;101374.44;5130476;27;20056;-56
2023/03/29 08:21:42;;;;;;;15.55;10.82;;;;;;;8.55;89.53;101369.94;5135321;27;20022;-56
2023/03/29 08:24:10;;;;;;;11.57;10.48;;;;;;;8.58;89.76;101370.63;5135690;27;20500;-56
2023/03/29 08:26:36;;;;;;;12.40;11.18;;;;;;;8.59;89.74;101364.44;5143100;27;20500;-56
2023/03/29 08:29:01;;;;;;;12.20;10.95;;;;;;;8.66;89.62;101359.69;5137346;27;20031;-56
2023/03/29 08:31:27;;;;;;;14.88;11.50;;;;;;;8.71;89.83;101355.03;5135198;27;20031;-56
2023/03/29 08:33:53;;;;;;;14.35;10.48;;;;;;;8.71;89.41;101363.00;5117039;27;20027;-56
2023/03/29 08:36:20;;;;;;;15.98;11.70;;;;;;;8.76;89.86;101346.84;5116509;27;20074;-56
2023/03/29 08:38:46;;;;;;;16.15;10.13;;;;;;;8.77;89.50;101343.28;5152114;27;20027;-56
2023/03/29 08:41:42;;;;;;;15.18;11.20;;;;;;;8.84;89.31;101352.66;5135991;27;20035;-56
2023/03/29 08:44:15;;;;;;;15.23;11.80;;;;;;;8.87;89.31;101357.81;5136846;27;20051;-57
2023/03/29 08:47:19;;;;;;;14.82;10.68;;;;;;;8.94;90.01;101356.59;5121854;27;20019;-56
2023/03/29 08:49:49;;;;;;;12.90;10.80;;;;;;;8.93;90.49;101359.31;5102135;27;20062;-56
2023/03/29 08:52:30;;;;;;;15.07;11.00;;;;;;;8.99;90.51;101351.06;5133685;27;20034;-56
2023/03/29 08:54:58;;;;;;;16.55;11.18;;;;;;;9.00;90.60;101350.09;5120685;27;20361;-56
2023/03/29 08:57:27;;;;;;;15.85;12.15;;;;;;;8.99;91.00;101343.94;5115633;27;20023;-56
2023/03/29 08:59:56;;;;;;;20.10;10.80;;;;;;;9.04;90.79;101344.59;5115770;27;20067;-56
2023/03/29 09:02:27;;;;;;;15.27;11.48;;;;;;;9.02;90.32;101351.75;5115064;27;20038;-56
2023/03/29 09:05:00;;;;;;;16.08;11.48;;;;;;;9.12;90.70;101343.34;5116257;27;20547;-57
2023/03/29 09:07:26;;;;;;;19.05;11.65;;;;;;;9.17;90.81;101344.00;5116447;27;20486;-56
2023/03/29 09:09:52;;;;;;;15.95;10.77;;;;;;;9.13;90.05;101337.13;5116152;27;20080;-56
2023/03/29 09:12:31;;;;;;;12.65;10.88;;;;;;;9.16;90.77;101337.84;5116304;27;20126;-56
2023/03/29 09:15:23;;;;;;;15.27;10.80;;;;;;;9.32;89.97;101340.56;5115918;27;20096;-56
2023/03/29 09:18:07;;;;;;;14.80;10.40;;;;;;;9.33;90.21;101345.81;5127685;27;20477;-57
2023/03/29 09:20:44;;;;;;;13.55;11.65;;;;;;;9.28;89.72;101349.63;5134724;27;20094;-56
2023/03/29 09:23:24;;;;;;;17.73;10.93;;;;;;;9.22;90.20;101350.78;5134515;27;20084;-56
2023/03/29 09:26:27;;;;;;;14.07;12.18;;;;;;;9.29;90.35;101338.06;5135443;27;20026;-56
2023/03/29 09:29:22;;;;;;;23.25;16.80;;;;;;;9.28;91.23;101337.22;5047694;28;20044;-57
2023/03/29 09:31:48;;;;;;;20.13;16.52;;;;;;;9.32;91.12;101335.25;5102753;27;20041;-56
2023/03/29 09:34:20;;;;;;;17.00;12.63;;;;;;;9.42;91.25;101346.31;5133947;27;20031;-56
2023/03/29 09:37:30;;;;;;;21.67;17.38;;;;;;;9.51;91.35;101352.00;5116879;27;20042;-57
2023/03/29 09:39:56;;;;;;;18.05;12.70;;;;;;;9.49;92.72;101353.84;5115397;27;20106;-56
2023/03/29 09:42:24;;;;;;;23.90;17.48;;;;;;;9.53;93.77;101358.09;5134028;27;20058;-57
2023/03/29 09:44:56;;;;;;;21.27;15.65;;;;;;;9.47;94.86;101350.44;5138216;27;20473;-56
2023/03/29 09:47:30;;;;;;;15.25;13.00;;;;;;;9.43;95.06;101351.53;5116074;27;20038;-57
2023/03/29 09:50:01;;;;;;;14.23;12.23;;;;;;;9.43;95.11;101340.03;5133627;27;20035;-56
2023/03/29 09:52:29;;;;;;;14.43;11.93;;;;;;;9.47;96.13;101339.81;5113422;27;20461;-56
2023/03/29 09:54:54;;;;;;;15.20;12.00;;;;;;;9.47;96.52;101347.78;5122499;27;20106;-56
2023/03/29 09:57:20;;;;;;;13.57;12.25;;;;;;;9.45;97.57;101349.66;5115099;27;20118;-56
2023/03/29 09:59:48;;;;;;;13.95;12.45;;;;;;;9.42;98.11;101359.56;5115764;27;20015;-56
2023/03/29 10:02:14;;;;;;;17.38;13.20;;;;;;;9.39;98.73;101342.00;5133279;27;20050;-56
2023/03/29 10:04:41;;;;;;;15.63;13.32;;;;;;;9.43;98.08;101353.31;5134449;27;20078;-56
2023/03/29 10:07:14;;;;;;;15.40;13.82;;;;;;;9.45;98.51;101348.81;5115446;27;20034;-56
2023/03/29 10:09:43;;;;;;;14.68;13.10;;;;;;;9.53;98.83;101352.78;5115540;27;20122;-56
2023/03/29 10:12:12;;;;;;;15.85;13.40;;;;;;;9.50;98.11;101339.66;5114487;27;20080;-56
2023/03/29 10:14:47;;;;;;;16.55;12.45;;;;;;;9.69;98.80;101358.16;5145016;27;20075;-56
2023/03/29 10:17:26;;;;;;;13.65;12.23;;;;;;;9.68;97.94;101348.50;5141756;27;20355;-56
2023/03/29 10:19:58;;;;;;;13.57;12.18;;;;;;;9.81;97.55;101354.03;5148398;27;20355;-56
2023/03/29 10:22:30;;;;;;;14.30;12.75;;;;;;;9.88;97.85;101342.16;5152765;27;20037;-56
2023/03/29 10:24:56;;;;;;;14.57;12.68;;;;;;;10.01;98.33;101345.00;5136150;27;20469;-57
2023/03/29 10:27:33;;;;;;;13.10;11.73;;;;;;;9.92;97.29;101333.06;5119571;27;20050;-56
2023/03/29 10:30:06;;;;;;;14.25;11.80;;;;;;;10.09;97.26;101329.53;5133097;27;20071;-57
2023/03/29 10:32:38;;;;;;;12.88;11.60;;;;;;;10.32;95.54;101330.09;5117882;27;20026;-56
2023/03/29 10:35:06;;;;;;;14.95;10.90;;;;;;;10.51;95.47;101322.00;5132937;27;20047;-56
2023/03/29 10:37:32;;;;;;;18.25;11.32;;;;;;;10.60;95.33;101319.69;5133038;27;20114;-56
2023/03/29 10:39:57;;;;;;;13.32;11.32;;;;;;;10.59;93.27;101315.31;5132796;27;20439;-56
2023/03/29 10:42:23;;;;;;;11.68;9.48;;;;;;;10.65;93.88;101319.44;5114961;27;20023;-56
2023/03/29 10:44:57;;;;;;;11.80;10.55;;;;;;;10.76;93.11;101310.84;5133067;27;20023;-56
2023/03/29 10:47:24;;;;;;;19.05;10.82;;;;;;;10.91;90.68;101305.53;5113423;27;20019;-56
2023/03/29 10:49:53;;;;;;;13.02;10.63;;;;;;;11.32;91.18;101304.91;5132583;27;20015;-57
2023/03/29 10:52:19;;;;;;;11.90;9.90;;;;;;;11.72;87.02;101299.84;5133574;27;20015;-57
2023/03/29 10:54:46;;;;;;;10.57;8.63;;;;;;;12.12;86.04;101299.25;5132985;27;20019;-58
2023/03/29 10:57:26;;;;;;;13.30;8.77;;;;;;;12.47;84.65;101281.00;5132497;27;20394;-56
2023/03/29 11:00:08;;;;;;;12.90;8.27;;;;;;;12.76;81.97;101284.47;5132491;27;20026;-57
2023/03/29 11:02:58;;;;;;;12.45;7.95;;;;;;;12.80;80.26;101293.16;5115371;27;20026;-56
2023/03/29 11:05:24;;;;;;;11.80;8.85;;;;;;;12.82;79.76;101283.22;5113716;27;20601;-56
2023/03/29 11:08:05;;;;;;;10.80;8.10;;;;;;;12.89;79.40;101268.53;5132730;27;20039;-56
2023/03/29 11:10:57;;;;;;;11.57;7.95;;;;;;;12.98;79.40;101275.91;5113864;27;20019;-56
2023/03/29 11:14:05;;;;;;;11.27;7.45;;;;;;;13.14;79.30;101278.41;5133398;27;20026;-57
2023/03/29 11:16:46;;;;;;;9.35;7.47;;;;;;;13.26;76.68;101272.28;5121595;27;20031;-56
2023/03/29 11:19:24;;;;;;;9.65;7.38;;;;;;;13.49;76.82;101264.50;5114848;27;20508;-56
2023/03/29 11:22:13;;;;;;;13.98;6.93;;;;;;;13.74;75.90;101267.22;5132753;27;20027;-57
2023/03/29 11:25:06;;;;;;;12.15;7.10;;;;;;;14.19;73.26;101274.78;5115667;27;20027;-57
2023/03/29 11:27:51;;;;;;;11.55;7.95;;;;;;;14.46;72.40;101274.59;5136325;27;20179;-57
2023/03/29 11:30:25;;;;;;;10.10;7.10;;;;;;;14.28;72.47;101277.63;5134138;27;20034;-57
2023/03/29 11:33:02;;;;;;;11.50;6.95;;;;;;;14.57;71.15;101284.56;5153631;27;20389;-57
2023/03/29 11:35:36;;;;;;;10.70;7.53;;;;;;;14.64;70.19;101288.50;5153346;27;20046;-56
2023/03/29 11:38:31;;;;;;;10.85;7.82;;;;;;;15.02;69.91;101279.44;5148868;27;20035;-57
2023/03/29 11:40:56;;;;;;;11.88;7.40;;;;;;;14.96;68.69;101272.72;5104992;28;20053;-57
2023/03/29 11:43:33;;;;;;;10.38;7.53;;;;;;;15.06;68.98;101272.88;5132511;28;20023;-56